Weather at Guararapes - Gilberto Freyre International Airport

Public forecast

Using degrees Celsius for public forecast. Weather courtesy of forecast.io.

Current aviation weather report (METAR) for Guararapes - Gilberto Freyre International Airport

Retrieved 2020/12/01 17:00 UTC (14 minutes ago):

SBRF 011700Z 12010KT 9999 SCT020 28/20 Q1013

Aviation forecast (TAF) for Guararapes - Gilberto Freyre International Airport

Retrieved 2020/12/01 12:00 UTC (5 hours ago):

TAF SBRF 010820Z 0112/0212 10010KT 8000 SCT020 TX29/0118Z TN25/0208Z BECMG 0119/0121 14010KT 9999 SCT025 BECMG 0200/0202 08007KT BECMG 0204/0206 12010KT BKN020 PROB40 TEMPO 0206/0212 7000 SHRA BKN020 FEW027TCU RMK PGB